Terminal Aerodrome Forecast
Issued by NWS New Orleans/Baton Rouge, LA

Home | Current Version | Previous Version | Text Only | Print | Product List | Glossary On
Versions: 1 2 3 4 5 6 7 8 9 10 11 12 13 14 15 16 17
216
FTUS44 KLIX 232332
TAFBTR
TAF
KBTR 232332Z 2400/2424 33006KT P6SM FEW030 SCT035
      TEMPO 2400/2401 BKN035
     FM240200 31004KT P6SM SKC
     FM241600 30009KT P6SM SKC=

USA.gov is the U.S. government's official web portal to all federal, state and local government web resources and services.